Waterville, ME (04901)

2:05 PM EDT on May 26, 2017 (GMT -0400)
West End | | Change Station

Elev 128 ft 44.55 °N, 69.65 °W | Updated 9 seconds ago

Light Rain
Light Rain
53.4 °F
Feels Like 53.4 °F
N
3.2
Wind Variable Wind from NNE

Today
High -- | Low -- °F
--% Chance of Precip.
Yesterday
High -- | Low -- °F
Precip. -- in
Pressure 29.61 in
Visibility 7.0 miles
Clouds Overcast 900 ft
Dew Point 51 °F
Humidity 93%
Rainfall 1.44 in
Snow Depth Not available.
5:00 AM 8:11 PM
New Moon, 1% visible
METAR KWVL 261756Z AUTO 03008KT 7SM -RA OVC009 11/10 A2952 RMK AO2 RAB1659 CIG 007V012 SLP026 P0000 60000 T01060100 10111 20089 56005
Pressure 29.61 in
Visibility 7.0 miles
Clouds Overcast 900 ft
Dew Point 51 °F
Humidity 93%
Rainfall 1.44 in
Snow Depth Not available.
5:00 AM 8:11 PM
New Moon, 1% visible
METAR KWVL 261756Z AUTO 03008KT 7SM -RA OVC009 11/10 A2952 RMK AO2 RAB1659 CIG 007V012 SLP026 P0000 60000 T01060100 10111 20089 56005

Get Severe Weather Alerts

Thanks for signing up!

Be on the lookout for a verification email in your inbox.

You'll start receiving the daily forecast at 6 AM.

×

10-Day Weather Forecast

Almanac

Astronomy

May. 26, 2017 Rise Set
Actual Time
Civil Twilight
Nautical Twilight
Astronomical Twilight
Moon
Length of Visible Light
Length of Day
Tomorrow will be .
, % of the Moon is Illuminated

Today's Extremes

State Highs State Lows

Community

WunderPhotos

Category 6

Welcome to Category 6. This is the collective home for Weather Underground's featured writeups by Dr. Jeff Masters (right), Bob Henson (left), Chris Burt, and other regular contributors.

Nearby

Air Quality

  Air Quality AQ Index Pollutant
Not available.

Snow Depth

Station Depth Elevation

Earthquake Activity

City Distance Mag. Time & Date
Minimum magnitude displayed is 2.5.

Coastal Water Temperatures

Place Temperature

Stations

Nearby Weather Stations

Station Location Temp. Windchill Dew Point Humidity Wind Precip. Elev Updated Type
                   

Watches & Warnings

There are currently no watches in effect.